sensor_id;sensor_type;location;lat;lon;timestamp;temperature;humidity
11264;DHT22;5689;48.798;9.070;2023-10-08T00:00:45;16.80;75.50
11264;DHT22;5689;48.798;9.070;2023-10-08T00:03:17;16.90;74.80
11264;DHT22;5689;48.798;9.070;2023-10-08T00:05:45;16.90;74.40
11264;DHT22;5689;48.798;9.070;2023-10-08T00:08:14;16.90;74.60
11264;DHT22;5689;48.798;9.070;2023-10-08T00:10:44;16.90;75.10
11264;DHT22;5689;48.798;9.070;2023-10-08T00:13:12;16.90;75.60
11264;DHT22;5689;48.798;9.070;2023-10-08T00:15:43;16.80;75.70
11264;DHT22;5689;48.798;9.070;2023-10-08T00:18:20;16.80;75.90
11264;DHT22;5689;48.798;9.070;2023-10-08T00:20:50;16.80;76.40
11264;DHT22;5689;48.798;9.070;2023-10-08T00:23:25;16.70;76.60
11264;DHT22;5689;48.798;9.070;2023-10-08T00:25:53;16.70;77.00
11264;DHT22;5689;48.798;9.070;2023-10-08T00:28:21;16.70;77.30
11264;DHT22;5689;48.798;9.070;2023-10-08T00:30:50;16.70;77.10
11264;DHT22;5689;48.798;9.070;2023-10-08T00:33:22;16.70;77.40
11264;DHT22;5689;48.798;9.070;2023-10-08T00:35:51;16.70;77.70
11264;DHT22;5689;48.798;9.070;2023-10-08T00:38:19;16.70;78.50
11264;DHT22;5689;48.798;9.070;2023-10-08T00:40:48;16.50;79.10
11264;DHT22;5689;48.798;9.070;2023-10-08T00:43:31;16.30;81.30
11264;DHT22;5689;48.798;9.070;2023-10-08T00:46:01;15.90;83.70
11264;DHT22;5689;48.798;9.070;2023-10-08T00:48:46;15.60;85.70
11264;DHT22;5689;48.798;9.070;2023-10-08T00:51:14;15.40;87.80
11264;DHT22;5689;48.798;9.070;2023-10-08T00:53:54;15.40;87.50
11264;DHT22;5689;48.798;9.070;2023-10-08T00:56:27;15.30;88.10
11264;DHT22;5689;48.798;9.070;2023-10-08T00:59:13;15.30;87.60
11264;DHT22;5689;48.798;9.070;2023-10-08T01:01:43;15.20;89.00
11264;DHT22;5689;48.798;9.070;2023-10-08T01:04:19;15.20;88.60
11264;DHT22;5689;48.798;9.070;2023-10-08T01:06:51;15.20;88.70
11264;DHT22;5689;48.798;9.070;2023-10-08T01:09:22;15.00;89.10
11264;DHT22;5689;48.798;9.070;2023-10-08T01:12:09;14.90;90.00
11264;DHT22;5689;48.798;9.070;2023-10-08T01:14:39;14.80;90.40
11264;DHT22;5689;48.798;9.070;2023-10-08T01:17:10;14.80;90.60
11264;DHT22;5689;48.798;9.070;2023-10-08T01:19:43;14.80;90.70
11264;DHT22;5689;48.798;9.070;2023-10-08T01:22:13;14.80;91.10
11264;DHT22;5689;48.798;9.070;2023-10-08T01:24:45;14.70;91.10
11264;DHT22;5689;48.798;9.070;2023-10-08T01:27:15;14.60;91.20
11264;DHT22;5689;48.798;9.070;2023-10-08T01:29:49;14.50;91.40
11264;DHT22;5689;48.798;9.070;2023-10-08T01:32:19;14.40;91.70
11264;DHT22;5689;48.798;9.070;2023-10-08T01:34:49;14.30;92.10
11264;DHT22;5689;48.798;9.070;2023-10-08T01:37:18;14.30;92.40
11264;DHT22;5689;48.798;9.070;2023-10-08T01:39:49;14.30;92.40
11264;DHT22;5689;48.798;9.070;2023-10-08T01:42:18;14.30;92.60
11264;DHT22;5689;48.798;9.070;2023-10-08T01:44:48;14.20;92.50
11264;DHT22;5689;48.798;9.070;2023-10-08T01:47:17;14.30;92.60
11264;DHT22;5689;48.798;9.070;2023-10-08T01:49:46;14.10;92.90
11264;DHT22;5689;48.798;9.070;2023-10-08T01:52:17;14.20;93.10
11264;DHT22;5689;48.798;9.070;2023-10-08T01:54:48;14.00;93.20
11264;DHT22;5689;48.798;9.070;2023-10-08T01:57:16;13.90;93.70
11264;DHT22;5689;48.798;9.070;2023-10-08T01:59:45;13.90;94.10
11264;DHT22;5689;48.798;9.070;2023-10-08T02:02:13;14.00;94.00
11264;DHT22;5689;48.798;9.070;2023-10-08T02:04:42;13.80;94.10
11264;DHT22;5689;48.798;9.070;2023-10-08T02:07:11;13.80;94.30
11264;DHT22;5689;48.798;9.070;2023-10-08T02:09:41;13.70;94.80
11264;DHT22;5689;48.798;9.070;2023-10-08T02:12:11;13.60;95.30
11264;DHT22;5689;48.798;9.070;2023-10-08T02:14:41;13.50;95.60
11264;DHT22;5689;48.798;9.070;2023-10-08T02:17:09;13.60;95.90
11264;DHT22;5689;48.798;9.070;2023-10-08T02:19:39;13.50;95.90
11264;DHT22;5689;48.798;9.070;2023-10-08T02:22:08;13.40;96.50
11264;DHT22;5689;48.798;9.070;2023-10-08T02:24:37;13.30;96.90
11264;DHT22;5689;48.798;9.070;2023-10-08T02:27:07;13.20;97.00
11264;DHT22;5689;48.798;9.070;2023-10-08T02:29:37;13.10;97.50
11264;DHT22;5689;48.798;9.070;2023-10-08T02:32:06;13.20;97.20
11264;DHT22;5689;48.798;9.070;2023-10-08T02:34:34;13.10;97.10
11264;DHT22;5689;48.798;9.070;2023-10-08T02:37:03;13.10;97.20
11264;DHT22;5689;48.798;9.070;2023-10-08T02:39:31;13.10;97.10
11264;DHT22;5689;48.798;9.070;2023-10-08T02:41:59;13.20;97.40
11264;DHT22;5689;48.798;9.070;2023-10-08T02:44:29;12.90;97.80
11264;DHT22;5689;48.798;9.070;2023-10-08T02:46:58;12.90;98.20
11264;DHT22;5689;48.798;9.070;2023-10-08T02:49:27;12.80;98.30
11264;DHT22;5689;48.798;9.070;2023-10-08T02:51:57;13.00;98.30
11264;DHT22;5689;48.798;9.070;2023-10-08T02:54:25;12.80;98.50
11264;DHT22;5689;48.798;9.070;2023-10-08T02:56:59;12.80;98.60
11264;DHT22;5689;48.798;9.070;2023-10-08T02:59:32;12.80;98.90
11264;DHT22;5689;48.798;9.070;2023-10-08T03:02:07;12.60;99.00
11264;DHT22;5689;48.798;9.070;2023-10-08T03:04:41;12.60;98.80
11264;DHT22;5689;48.798;9.070;2023-10-08T03:07:12;12.60;99.20
11264;DHT22;5689;48.798;9.070;2023-10-08T03:09:51;12.60;99.40
11264;DHT22;5689;48.798;9.070;2023-10-08T03:12:30;12.50;99.70
11264;DHT22;5689;48.798;9.070;2023-10-08T03:15:01;12.30;99.90
11264;DHT22;5689;48.798;9.070;2023-10-08T03:17:40;12.30;99.90
11264;DHT22;5689;48.798;9.070;2023-10-08T03:20:15;12.40;99.90
11264;DHT22;5689;48.798;9.070;2023-10-08T03:23:05;12.50;99.80
11264;DHT22;5689;48.798;9.070;2023-10-08T03:25:39;12.50;98.90
11264;DHT22;5689;48.798;9.070;2023-10-08T03:28:09;12.60;99.10
11264;DHT22;5689;48.798;9.070;2023-10-08T03:30:41;12.60;99.30
11264;DHT22;5689;48.798;9.070;2023-10-08T03:33:17;12.70;99.50
11264;DHT22;5689;48.798;9.070;2023-10-08T03:35:50;12.60;99.50
11264;DHT22;5689;48.798;9.070;2023-10-08T03:38:21;12.50;99.80
11264;DHT22;5689;48.798;9.070;2023-10-08T03:40:55;12.40;99.90
11264;DHT22;5689;48.798;9.070;2023-10-08T03:43:30;12.40;99.90
11264;DHT22;5689;48.798;9.070;2023-10-08T03:46:10;12.40;99.90
11264;DHT22;5689;48.798;9.070;2023-10-08T03:48:42;12.40;99.90
11264;DHT22;5689;48.798;9.070;2023-10-08T03:51:12;12.50;99.90
11264;DHT22;5689;48.798;9.070;2023-10-08T03:53:41;12.50;99.90
11264;DHT22;5689;48.798;9.070;2023-10-08T03:56:25;12.40;99.90
11264;DHT22;5689;48.798;9.070;2023-10-08T03:58:56;12.30;99.90
11264;DHT22;5689;48.798;9.070;2023-10-08T04:01:28;12.40;99.90
11264;DHT22;5689;48.798;9.070;2023-10-08T04:04:00;12.20;99.90
11264;DHT22;5689;48.798;9.070;2023-10-08T04:06:28;12.10;99.90
11264;DHT22;5689;48.798;9.070;2023-10-08T04:08:59;12.10;99.90
11264;DHT22;5689;48.798;9.070;2023-10-08T04:11:39;12.00;99.90
11264;DHT22;5689;48.798;9.070;2023-10-08T04:14:19;12.00;99.90
11264;DHT22;5689;48.798;9.070;2023-10-08T04:16:49;12.00;99.90
11264;DHT22;5689;48.798;9.070;2023-10-08T04:19:19;12.10;99.90
11264;DHT22;5689;48.798;9.070;2023-10-08T04:21:48;12.10;99.90
11264;DHT22;5689;48.798;9.070;2023-10-08T04:24:21;12.20;99.90
11264;DHT22;5689;48.798;9.070;2023-10-08T04:26:55;12.20;99.90
11264;DHT22;5689;48.798;9.070;2023-10-08T04:29:29;12.00;99.90
11264;DHT22;5689;48.798;9.070;2023-10-08T04:32:00;11.70;99.90
11264;DHT22;5689;48.798;9.070;2023-10-08T04:34:34;11.50;99.90
11264;DHT22;5689;48.798;9.070;2023-10-08T04:37:03;11.50;99.90
11264;DHT22;5689;48.798;9.070;2023-10-08T04:39:39;11.60;99.90
11264;DHT22;5689;48.798;9.070;2023-10-08T04:42:14;11.60;99.90
11264;DHT22;5689;48.798;9.070;2023-10-08T04:44:44;11.70;99.90
11264;DHT22;5689;48.798;9.070;2023-10-08T04:47:14;11.70;99.90
11264;DHT22;5689;48.798;9.070;2023-10-08T04:49:58;11.70;99.90
11264;DHT22;5689;48.798;9.070;2023-10-08T04:52:26;11.80;99.90
11264;DHT22;5689;48.798;9.070;2023-10-08T04:54:54;11.80;99.90
11264;DHT22;5689;48.798;9.070;2023-10-08T04:57:23;11.90;99.90
11264;DHT22;5689;48.798;9.070;2023-10-08T04:59:52;12.00;99.90
11264;DHT22;5689;48.798;9.070;2023-10-08T05:02:25;11.90;99.90
11264;DHT22;5689;48.798;9.070;2023-10-08T05:05:03;11.90;99.90
11264;DHT22;5689;48.798;9.070;2023-10-08T05:07:50;11.90;99.90
11264;DHT22;5689;48.798;9.070;2023-10-08T05:10:44;12.00;99.90
11264;DHT22;5689;48.798;9.070;2023-10-08T05:13:28;12.10;99.90
11264;DHT22;5689;48.798;9.070;2023-10-08T05:16:11;12.00;99.90
11264;DHT22;5689;48.798;9.070;2023-10-08T05:18:57;11.90;99.90
11264;DHT22;5689;48.798;9.070;2023-10-08T05:21:51;11.90;99.90
11264;DHT22;5689;48.798;9.070;2023-10-08T05:24:29;11.80;99.90
11264;DHT22;5689;48.798;9.070;2023-10-08T05:27:06;11.80;99.90
11264;DHT22;5689;48.798;9.070;2023-10-08T05:29:51;11.80;99.90
11264;DHT22;5689;48.798;9.070;2023-10-08T05:32:36;11.80;99.90
11264;DHT22;5689;48.798;9.070;2023-10-08T05:35:34;11.90;99.90
11264;DHT22;5689;48.798;9.070;2023-10-08T05:38:18;11.90;99.90
11264;DHT22;5689;48.798;9.070;2023-10-08T05:41:06;11.80;99.90
11264;DHT22;5689;48.798;9.070;2023-10-08T05:43:54;11.90;99.90
11264;DHT22;5689;48.798;9.070;2023-10-08T05:46:40;11.90;99.90
11264;DHT22;5689;48.798;9.070;2023-10-08T05:49:26;11.70;99.90
11264;DHT22;5689;48.798;9.070;2023-10-08T05:52:06;11.90;99.90
11264;DHT22;5689;48.798;9.070;2023-10-08T05:54:53;11.90;99.90
11264;DHT22;5689;48.798;9.070;2023-10-08T05:57:53;11.90;99.90
11264;DHT22;5689;48.798;9.070;2023-10-08T06:00:29;11.90;99.90
11264;DHT22;5689;48.798;9.070;2023-10-08T06:03:13;11.90;99.90
11264;DHT22;5689;48.798;9.070;2023-10-08T06:06:00;11.90;99.90
11264;DHT22;5689;48.798;9.070;2023-10-08T06:08:47;12.00;99.90
11264;DHT22;5689;48.798;9.070;2023-10-08T06:11:48;12.10;99.90
11264;DHT22;5689;48.798;9.070;2023-10-08T06:14:37;12.10;99.90
11264;DHT22;5689;48.798;9.070;2023-10-08T06:17:35;12.30;99.90
11264;DHT22;5689;48.798;9.070;2023-10-08T06:20:24;12.30;99.90
11264;DHT22;5689;48.798;9.070;2023-10-08T06:22:53;12.40;99.90
11264;DHT22;5689;48.798;9.070;2023-10-08T06:25:29;12.40;99.90
11264;DHT22;5689;48.798;9.070;2023-10-08T06:27:57;12.40;99.90
11264;DHT22;5689;48.798;9.070;2023-10-08T06:30:25;12.60;99.90
11264;DHT22;5689;48.798;9.070;2023-10-08T06:32:56;12.60;99.90
11264;DHT22;5689;48.798;9.070;2023-10-08T06:35:24;12.60;99.90
11264;DHT22;5689;48.798;9.070;2023-10-08T06:37:54;12.50;99.90
11264;DHT22;5689;48.798;9.070;2023-10-08T06:40:26;12.40;99.90
11264;DHT22;5689;48.798;9.070;2023-10-08T06:43:11;12.30;99.90
11264;DHT22;5689;48.798;9.070;2023-10-08T06:45:42;12.50;99.90
11264;DHT22;5689;48.798;9.070;2023-10-08T06:48:10;12.60;99.90
11264;DHT22;5689;48.798;9.070;2023-10-08T06:50:45;12.80;99.90
11264;DHT22;5689;48.798;9.070;2023-10-08T06:53:14;12.90;99.90
11264;DHT22;5689;48.798;9.070;2023-10-08T06:55:42;13.20;99.90
11264;DHT22;5689;48.798;9.070;2023-10-08T06:58:11;13.20;99.90
11264;DHT22;5689;48.798;9.070;2023-10-08T07:00:41;13.40;99.90
11264;DHT22;5689;48.798;9.070;2023-10-08T07:03:16;13.80;99.90
11264;DHT22;5689;48.798;9.070;2023-10-08T07:05:46;14.10;99.90
11264;DHT22;5689;48.798;9.070;2023-10-08T07:08:26;14.40;99.90
11264;DHT22;5689;48.798;9.070;2023-10-08T07:10:56;15.40;99.90
11264;DHT22;5689;48.798;9.070;2023-10-08T07:13:27;16.40;99.90
11264;DHT22;5689;48.798;9.070;2023-10-08T07:15:57;17.50;99.90
11264;DHT22;5689;48.798;9.070;2023-10-08T07:18:26;16.90;99.90
11264;DHT22;5689;48.798;9.070;2023-10-08T07:20:58;18.40;98.00
11264;DHT22;5689;48.798;9.070;2023-10-08T07:23:29;19.50;93.80
11264;DHT22;5689;48.798;9.070;2023-10-08T07:26:01;20.70;90.90
11264;DHT22;5689;48.798;9.070;2023-10-08T07:28:39;21.10;90.10
11264;DHT22;5689;48.798;9.070;2023-10-08T07:31:13;21.90;87.70
11264;DHT22;5689;48.798;9.070;2023-10-08T07:33:42;19.90;90.20
11264;DHT22;5689;48.798;9.070;2023-10-08T07:36:10;18.40;92.10
11264;DHT22;5689;48.798;9.070;2023-10-08T07:38:41;17.90;93.10
11264;DHT22;5689;48.798;9.070;2023-10-08T07:41:10;18.00;91.90
11264;DHT22;5689;48.798;9.070;2023-10-08T07:43:41;17.90;91.50
11264;DHT22;5689;48.798;9.070;2023-10-08T07:46:10;18.00;91.20
11264;DHT22;5689;48.798;9.070;2023-10-08T07:48:40;18.10;92.10
11264;DHT22;5689;48.798;9.070;2023-10-08T07:51:09;18.30;92.80
11264;DHT22;5689;48.798;9.070;2023-10-08T07:53:37;18.00;92.50
11264;DHT22;5689;48.798;9.070;2023-10-08T07:56:06;18.00;92.50
11264;DHT22;5689;48.798;9.070;2023-10-08T07:58:35;18.40;91.40
11264;DHT22;5689;48.798;9.070;2023-10-08T08:01:06;18.00;92.70
11264;DHT22;5689;48.798;9.070;2023-10-08T08:03:34;18.00;94.00
11264;DHT22;5689;48.798;9.070;2023-10-08T08:06:04;17.90;94.10
11264;DHT22;5689;48.798;9.070;2023-10-08T08:08:34;17.50;94.80
11264;DHT22;5689;48.798;9.070;2023-10-08T08:11:03;17.40;93.40
11264;DHT22;5689;48.798;9.070;2023-10-08T08:13:34;17.70;93.60
11264;DHT22;5689;48.798;9.070;2023-10-08T08:16:02;17.80;93.50
11264;DHT22;5689;48.798;9.070;2023-10-08T08:18:45;17.80;93.50
11264;DHT22;5689;48.798;9.070;2023-10-08T08:21:13;18.10;94.20
11264;DHT22;5689;48.798;9.070;2023-10-08T08:23:43;18.60;93.30
11264;DHT22;5689;48.798;9.070;2023-10-08T08:26:15;20.00;91.80
11264;DHT22;5689;48.798;9.070;2023-10-08T08:28:55;20.00;90.60
11264;DHT22;5689;48.798;9.070;2023-10-08T08:31:24;20.50;90.10
11264;DHT22;5689;48.798;9.070;2023-10-08T08:33:54;21.00;89.80
11264;DHT22;5689;48.798;9.070;2023-10-08T08:36:27;22.30;86.80
11264;DHT22;5689;48.798;9.070;2023-10-08T08:38:56;23.70;81.50
11264;DHT22;5689;48.798;9.070;2023-10-08T08:41:24;25.00;78.70
11264;DHT22;5689;48.798;9.070;2023-10-08T08:43:54;25.50;73.40
11264;DHT22;5689;48.798;9.070;2023-10-08T08:46:28;26.00;73.00
11264;DHT22;5689;48.798;9.070;2023-10-08T08:49:02;25.20;73.80
11264;DHT22;5689;48.798;9.070;2023-10-08T08:51:31;27.20;69.50
11264;DHT22;5689;48.798;9.070;2023-10-08T08:54:00;27.30;68.60
11264;DHT22;5689;48.798;9.070;2023-10-08T08:56:33;28.00;66.50
11264;DHT22;5689;48.798;9.070;2023-10-08T08:59:01;28.10;64.60
11264;DHT22;5689;48.798;9.070;2023-10-08T09:01:31;27.10;66.00
11264;DHT22;5689;48.798;9.070;2023-10-08T09:04:01;26.20;64.20
11264;DHT22;5689;48.798;9.070;2023-10-08T09:06:33;25.80;66.50
11264;DHT22;5689;48.798;9.070;2023-10-08T09:09:01;25.50;66.80
11264;DHT22;5689;48.798;9.070;2023-10-08T09:11:48;25.80;67.60
11264;DHT22;5689;48.798;9.070;2023-10-08T09:14:20;27.20;64.70
11264;DHT22;5689;48.798;9.070;2023-10-08T09:16:49;26.90;65.30
11264;DHT22;5689;48.798;9.070;2023-10-08T09:19:19;27.30;63.90
11264;DHT22;5689;48.798;9.070;2023-10-08T09:22:00;26.70;62.50
11264;DHT22;5689;48.798;9.070;2023-10-08T09:24:28;28.60;60.40
11264;DHT22;5689;48.798;9.070;2023-10-08T09:26:56;29.40;59.40
11264;DHT22;5689;48.798;9.070;2023-10-08T09:29:25;28.50;59.40
11264;DHT22;5689;48.798;9.070;2023-10-08T09:31:53;28.10;59.70
11264;DHT22;5689;48.798;9.070;2023-10-08T09:34:28;25.50;64.40
11264;DHT22;5689;48.798;9.070;2023-10-08T09:36:57;25.80;66.10
11264;DHT22;5689;48.798;9.070;2023-10-08T09:39:27;25.60;66.30
11264;DHT22;5689;48.798;9.070;2023-10-08T09:42:01;26.40;65.10
11264;DHT22;5689;48.798;9.070;2023-10-08T09:44:32;26.60;66.40
11264;DHT22;5689;48.798;9.070;2023-10-08T09:47:03;26.20;67.30
11264;DHT22;5689;48.798;9.070;2023-10-08T09:49:38;26.70;64.40
11264;DHT22;5689;48.798;9.070;2023-10-08T09:52:09;26.80;63.40
11264;DHT22;5689;48.798;9.070;2023-10-08T09:54:44;26.30;65.80
11264;DHT22;5689;48.798;9.070;2023-10-08T09:57:14;26.10;66.70
11264;DHT22;5689;48.798;9.070;2023-10-08T09:59:46;25.90;66.20
11264;DHT22;5689;48.798;9.070;2023-10-08T10:02:15;25.70;67.20
11264;DHT22;5689;48.798;9.070;2023-10-08T10:04:45;25.50;68.00
11264;DHT22;5689;48.798;9.070;2023-10-08T10:07:14;25.10;68.60
11264;DHT22;5689;48.798;9.070;2023-10-08T10:09:44;24.50;70.80
11264;DHT22;5689;48.798;9.070;2023-10-08T10:12:18;25.00;70.70
11264;DHT22;5689;48.798;9.070;2023-10-08T10:14:53;25.50;69.50
11264;DHT22;5689;48.798;9.070;2023-10-08T10:17:24;26.60;66.80
11264;DHT22;5689;48.798;9.070;2023-10-08T10:20:08;26.80;66.30
11264;DHT22;5689;48.798;9.070;2023-10-08T10:22:40;26.90;65.60
11264;DHT22;5689;48.798;9.070;2023-10-08T10:25:10;26.40;67.00
11264;DHT22;5689;48.798;9.070;2023-10-08T10:30:48;24.90;69.90
11264;DHT22;5689;48.798;9.070;2023-10-08T10:33:16;25.10;69.00
11264;DHT22;5689;48.798;9.070;2023-10-08T10:35:51;25.20;69.60
11264;DHT22;5689;48.798;9.070;2023-10-08T10:38:19;24.90;69.80
11264;DHT22;5689;48.798;9.070;2023-10-08T10:40:49;25.30;70.40
11264;DHT22;5689;48.798;9.070;2023-10-08T10:43:24;27.40;66.30
11264;DHT22;5689;48.798;9.070;2023-10-08T10:45:59;30.10;60.60
11264;DHT22;5689;48.798;9.070;2023-10-08T10:48:46;31.30;58.30
11264;DHT22;5689;48.798;9.070;2023-10-08T10:51:25;31.40;57.50
11264;DHT22;5689;48.798;9.070;2023-10-08T10:53:57;29.80;59.10
11264;DHT22;5689;48.798;9.070;2023-10-08T10:56:30;29.20;60.40
11264;DHT22;5689;48.798;9.070;2023-10-08T10:58:59;29.90;58.90
11264;DHT22;5689;48.798;9.070;2023-10-08T11:01:28;30.20;59.20
11264;DHT22;5689;48.798;9.070;2023-10-08T11:04:10;28.90;59.70
11264;DHT22;5689;48.798;9.070;2023-10-08T11:06:44;28.80;61.70
11264;DHT22;5689;48.798;9.070;2023-10-08T11:09:13;28.20;62.30
11264;DHT22;5689;48.798;9.070;2023-10-08T11:11:43;26.90;64.40
11264;DHT22;5689;48.798;9.070;2023-10-08T11:14:12;26.50;64.80
11264;DHT22;5689;48.798;9.070;2023-10-08T11:16:46;26.40;65.00
11264;DHT22;5689;48.798;9.070;2023-10-08T11:19:14;26.20;65.20
11264;DHT22;5689;48.798;9.070;2023-10-08T11:21:51;26.50;66.20
11264;DHT22;5689;48.798;9.070;2023-10-08T11:24:30;27.30;63.50
11264;DHT22;5689;48.798;9.070;2023-10-08T11:27:00;27.60;62.70
11264;DHT22;5689;48.798;9.070;2023-10-08T11:29:43;27.40;62.30
11264;DHT22;5689;48.798;9.070;2023-10-08T11:32:14;29.10;61.50
11264;DHT22;5689;48.798;9.070;2023-10-08T11:34:45;31.50;57.20
11264;DHT22;5689;48.798;9.070;2023-10-08T11:37:28;32.60;55.40
11264;DHT22;5689;48.798;9.070;2023-10-08T11:39:56;33.40;53.30
11264;DHT22;5689;48.798;9.070;2023-10-08T11:42:26;33.20;52.50
11264;DHT22;5689;48.798;9.070;2023-10-08T11:45:07;33.20;51.30
11264;DHT22;5689;48.798;9.070;2023-10-08T11:47:52;33.00;50.70
11264;DHT22;5689;48.798;9.070;2023-10-08T11:50:24;33.60;50.20
11264;DHT22;5689;48.798;9.070;2023-10-08T11:53:02;35.30;50.50
11264;DHT22;5689;48.798;9.070;2023-10-08T11:55:33;34.20;49.20
11264;DHT22;5689;48.798;9.070;2023-10-08T11:58:02;34.70;49.00
11264;DHT22;5689;48.798;9.070;2023-10-08T12:00:37;34.90;47.70
11264;DHT22;5689;48.798;9.070;2023-10-08T12:03:11;34.40;47.70
11264;DHT22;5689;48.798;9.070;2023-10-08T12:05:39;31.80;51.10
11264;DHT22;5689;48.798;9.070;2023-10-08T12:08:16;30.50;54.10
11264;DHT22;5689;48.798;9.070;2023-10-08T12:10:44;33.40;50.10
11264;DHT22;5689;48.798;9.070;2023-10-08T12:13:13;36.40;46.00
11264;DHT22;5689;48.798;9.070;2023-10-08T12:15:44;35.50;47.20
11264;DHT22;5689;48.798;9.070;2023-10-08T12:18:13;35.20;49.40
11264;DHT22;5689;48.798;9.070;2023-10-08T12:20:51;35.70;47.10
11264;DHT22;5689;48.798;9.070;2023-10-08T12:23:22;38.00;43.70
11264;DHT22;5689;48.798;9.070;2023-10-08T12:25:52;37.80;42.10
11264;DHT22;5689;48.798;9.070;2023-10-08T12:28:23;35.40;44.30
11264;DHT22;5689;48.798;9.070;2023-10-08T12:30:51;34.80;45.50
11264;DHT22;5689;48.798;9.070;2023-10-08T12:33:20;34.70;45.50
11264;DHT22;5689;48.798;9.070;2023-10-08T12:35:51;32.60;47.60
11264;DHT22;5689;48.798;9.070;2023-10-08T12:38:21;32.20;47.40
11264;DHT22;5689;48.798;9.070;2023-10-08T12:40:49;32.90;47.00
11264;DHT22;5689;48.798;9.070;2023-10-08T12:43:20;35.80;44.30
11264;DHT22;5689;48.798;9.070;2023-10-08T12:45:49;34.90;44.80
11264;DHT22;5689;48.798;9.070;2023-10-08T12:48:20;33.10;47.90
11264;DHT22;5689;48.798;9.070;2023-10-08T12:50:48;32.20;46.70
11264;DHT22;5689;48.798;9.070;2023-10-08T12:53:25;32.20;48.60
11264;DHT22;5689;48.798;9.070;2023-10-08T12:56:00;32.30;47.70
11264;DHT22;5689;48.798;9.070;2023-10-08T12:58:34;31.70;47.60
11264;DHT22;5689;48.798;9.070;2023-10-08T13:01:08;32.00;49.30
11264;DHT22;5689;48.798;9.070;2023-10-08T13:03:37;34.50;44.60
11264;DHT22;5689;48.798;9.070;2023-10-08T13:06:09;34.60;45.90
11264;DHT22;5689;48.798;9.070;2023-10-08T13:08:43;34.60;43.80
11264;DHT22;5689;48.798;9.070;2023-10-08T13:11:11;32.80;46.70
11264;DHT22;5689;48.798;9.070;2023-10-08T13:13:39;33.20;46.90
11264;DHT22;5689;48.798;9.070;2023-10-08T13:16:07;32.10;46.60
11264;DHT22;5689;48.798;9.070;2023-10-08T13:18:35;33.80;45.10
11264;DHT22;5689;48.798;9.070;2023-10-08T13:21:04;34.80;44.00
11264;DHT22;5689;48.798;9.070;2023-10-08T13:23:33;32.40;46.00
11264;DHT22;5689;48.798;9.070;2023-10-08T13:26:03;32.10;47.30
11264;DHT22;5689;48.798;9.070;2023-10-08T13:28:34;32.20;48.20
11264;DHT22;5689;48.798;9.070;2023-10-08T13:31:02;31.80;48.10
11264;DHT22;5689;48.798;9.070;2023-10-08T13:33:37;31.70;47.10
11264;DHT22;5689;48.798;9.070;2023-10-08T13:36:07;31.80;46.90
11264;DHT22;5689;48.798;9.070;2023-10-08T13:38:44;31.90;47.60
11264;DHT22;5689;48.798;9.070;2023-10-08T13:41:15;31.60;48.80
11264;DHT22;5689;48.798;9.070;2023-10-08T13:43:44;32.40;48.00
11264;DHT22;5689;48.798;9.070;2023-10-08T13:46:14;31.00;48.40
11264;DHT22;5689;48.798;9.070;2023-10-08T13:48:44;30.10;49.40
11264;DHT22;5689;48.798;9.070;2023-10-08T13:51:15;30.30;48.90
11264;DHT22;5689;48.798;9.070;2023-10-08T13:53:48;31.90;47.80
11264;DHT22;5689;48.798;9.070;2023-10-08T13:56:21;30.10;49.80
11264;DHT22;5689;48.798;9.070;2023-10-08T13:58:53;30.40;50.20
11264;DHT22;5689;48.798;9.070;2023-10-08T14:01:30;30.40;49.60
11264;DHT22;5689;48.798;9.070;2023-10-08T14:04:01;30.70;50.20
11264;DHT22;5689;48.798;9.070;2023-10-08T14:06:32;29.50;50.70
11264;DHT22;5689;48.798;9.070;2023-10-08T14:09:01;29.40;51.70
11264;DHT22;5689;48.798;9.070;2023-10-08T14:11:35;29.40;51.10
11264;DHT22;5689;48.798;9.070;2023-10-08T14:14:03;28.80;52.70
11264;DHT22;5689;48.798;9.070;2023-10-08T14:16:38;28.90;53.00
11264;DHT22;5689;48.798;9.070;2023-10-08T14:19:09;31.40;49.30
11264;DHT22;5689;48.798;9.070;2023-10-08T14:21:39;30.00;51.30
11264;DHT22;5689;48.798;9.070;2023-10-08T14:24:16;29.80;51.00
11264;DHT22;5689;48.798;9.070;2023-10-08T14:26:46;29.10;52.60
11264;DHT22;5689;48.798;9.070;2023-10-08T14:29:19;28.20;53.20
11264;DHT22;5689;48.798;9.070;2023-10-08T14:31:47;28.10;54.70
11264;DHT22;5689;48.798;9.070;2023-10-08T14:34:16;28.30;55.50
11264;DHT22;5689;48.798;9.070;2023-10-08T14:36:56;28.80;53.60
11264;DHT22;5689;48.798;9.070;2023-10-08T14:39:47;28.20;54.40
11264;DHT22;5689;48.798;9.070;2023-10-08T14:42:33;27.50;55.60
11264;DHT22;5689;48.798;9.070;2023-10-08T14:45:18;27.50;55.40
11264;DHT22;5689;48.798;9.070;2023-10-08T14:47:46;27.10;56.60
11264;DHT22;5689;48.798;9.070;2023-10-08T14:50:15;27.10;56.00
11264;DHT22;5689;48.798;9.070;2023-10-08T14:52:44;25.90;58.10
11264;DHT22;5689;48.798;9.070;2023-10-08T14:55:13;25.50;59.10
11264;DHT22;5689;48.798;9.070;2023-10-08T14:57:44;25.70;59.30
11264;DHT22;5689;48.798;9.070;2023-10-08T15:00:12;25.60;59.40
11264;DHT22;5689;48.798;9.070;2023-10-08T15:02:40;25.60;59.00
11264;DHT22;5689;48.798;9.070;2023-10-08T15:05:09;25.60;60.20
11264;DHT22;5689;48.798;9.070;2023-10-08T15:07:37;25.70;59.60
11264;DHT22;5689;48.798;9.070;2023-10-08T15:10:06;25.90;59.30
11264;DHT22;5689;48.798;9.070;2023-10-08T15:12:37;25.90;59.30
11264;DHT22;5689;48.798;9.070;2023-10-08T15:15:08;26.60;57.70
11264;DHT22;5689;48.798;9.070;2023-10-08T15:17:40;27.10;57.70
11264;DHT22;5689;48.798;9.070;2023-10-08T15:20:11;26.10;60.40
11264;DHT22;5689;48.798;9.070;2023-10-08T15:22:41;25.80;61.40
11264;DHT22;5689;48.798;9.070;2023-10-08T15:25:10;25.30;62.20
11264;DHT22;5689;48.798;9.070;2023-10-08T15:27:39;25.00;63.30
11264;DHT22;5689;48.798;9.070;2023-10-08T15:30:09;25.40;63.50
11264;DHT22;5689;48.798;9.070;2023-10-08T15:32:39;25.40;63.50
11264;DHT22;5689;48.798;9.070;2023-10-08T15:35:11;25.60;63.10
11264;DHT22;5689;48.798;9.070;2023-10-08T15:37:41;25.20;63.50
11264;DHT22;5689;48.798;9.070;2023-10-08T15:40:10;24.90;63.90
11264;DHT22;5689;48.798;9.070;2023-10-08T15:45:14;24.20;65.70
11264;DHT22;5689;48.798;9.070;2023-10-08T15:47:42;24.30;66.30
11264;DHT22;5689;48.798;9.070;2023-10-08T15:50:11;24.90;65.00
11264;DHT22;5689;48.798;9.070;2023-10-08T15:52:39;25.70;62.60
11264;DHT22;5689;48.798;9.070;2023-10-08T15:55:08;25.50;62.80
11264;DHT22;5689;48.798;9.070;2023-10-08T15:57:37;26.10;63.10
11264;DHT22;5689;48.798;9.070;2023-10-08T16:00:07;26.70;61.40
11264;DHT22;5689;48.798;9.070;2023-10-08T16:02:36;26.90;59.60
11264;DHT22;5689;48.798;9.070;2023-10-08T16:05:05;26.70;60.20
11264;DHT22;5689;48.798;9.070;2023-10-08T16:07:34;26.20;62.10
11264;DHT22;5689;48.798;9.070;2023-10-08T16:10:03;26.30;63.80
11264;DHT22;5689;48.798;9.070;2023-10-08T16:12:31;26.40;63.50
11264;DHT22;5689;48.798;9.070;2023-10-08T16:14:59;26.20;63.60
11264;DHT22;5689;48.798;9.070;2023-10-08T16:17:27;26.30;65.10
11264;DHT22;5689;48.798;9.070;2023-10-08T16:19:59;26.00;65.90
11264;DHT22;5689;48.798;9.070;2023-10-08T16:22:34;25.40;67.60
11264;DHT22;5689;48.798;9.070;2023-10-08T16:25:02;25.10;69.20